Time;durP1;ratioP1;P1;durP2;ratioP2;P2;SDS_P1;SDS_P2;PMS_P1;PMS_P2;Temp;Humidity;BMP_temperature;BMP_pressure;BME280_temperature;BME280_humidity;BME280_pressure;Samples;Min_cycle;Max_cycle;Signal;HPM_P1;HPM_P2
2022/01/18 00:00:46;;;;;;;55.13;7.28;;;7.10;99.90;;;;;;5048167;28;20045;-68
2022/01/18 00:03:11;;;;;;;50.60;7.63;;;7.20;99.90;;;;;;5048262;28;20071;-69
2022/01/18 00:05:37;;;;;;;49.38;7.20;;;7.20;99.90;;;;;;5048764;28;20041;-68
2022/01/18 00:08:03;;;;;;;47.63;6.65;;;7.20;99.90;;;;;;5049012;28;20330;-69
2022/01/18 00:10:31;;;;;;;43.05;7.88;;;7.10;99.90;;;;;;5049305;28;20064;-68
2022/01/18 00:15:42;;;;;;;53.75;7.97;;;7.00;99.90;;;;;;5048507;28;20049;-68
2022/01/18 00:18:13;;;;;;;48.30;7.47;;;6.90;99.90;;;;;;5047472;28;20107;-68
2022/01/18 00:21:17;;;;;;;44.67;6.63;;;7.20;99.90;;;;;;5048212;28;20045;-69
2022/01/18 00:23:45;;;;;;;42.25;6.07;;;6.80;99.90;;;;;;5049890;28;20084;-68
2022/01/18 00:26:10;;;;;;;43.22;8.32;;;6.80;99.90;;;;;;5048298;28;20037;-69
2022/01/18 00:28:37;;;;;;;46.22;8.05;;;6.80;99.90;;;;;;5042459;28;20037;-69
2022/01/18 00:33:53;;;;;;;43.78;6.82;;;6.70;99.90;;;;;;5027849;28;20103;-69
2022/01/18 00:36:29;;;;;;;44.58;6.30;;;6.60;99.90;;;;;;5052735;28;20107;-69
2022/01/18 00:38:56;;;;;;;40.55;6.50;;;6.60;99.90;;;;;;5046980;28;20079;-69
2022/01/18 00:41:24;;;;;;;53.28;7.45;;;6.50;99.90;;;;;;5047657;28;20055;-69
2022/01/18 00:43:52;;;;;;;48.90;9.23;;;6.50;99.90;;;;;;5057163;28;20100;-69
2022/01/18 00:46:18;;;;;;;42.65;7.47;;;6.50;99.90;;;;;;5067439;28;20409;-68
2022/01/18 00:48:43;;;;;;;50.05;7.25;;;6.50;99.90;;;;;;5060224;28;20048;-69
2022/01/18 00:51:13;;;;;;;54.85;8.60;;;6.50;99.90;;;;;;5068751;28;20435;-69
2022/01/18 00:53:41;;;;;;;46.30;7.40;;;6.50;99.90;;;;;;5057763;28;20108;-69
2022/01/18 00:56:19;;;;;;;43.17;7.32;;;6.50;99.90;;;;;;5046658;28;20409;-69
2022/01/18 00:58:47;;;;;;;44.95;7.57;;;6.60;99.90;;;;;;5038440;28;20036;-69
2022/01/18 01:01:14;;;;;;;57.22;8.15;;;6.60;99.90;;;;;;5047795;28;20071;-69
2022/01/18 01:03:40;;;;;;;46.20;7.57;;;6.60;99.90;;;;;;5047979;28;20056;-69
2022/01/18 01:06:07;;;;;;;50.55;6.65;;;6.60;99.90;;;;;;5048220;28;20037;-68
2022/01/18 01:08:36;;;;;;;36.58;6.30;;;6.50;99.90;;;;;;5048459;28;20052;-69
2022/01/18 01:11:04;;;;;;;49.50;7.57;;;6.50;99.90;;;;;;5048063;28;20402;-68
2022/01/18 01:13:31;;;;;;;60.50;6.75;;;6.60;99.90;;;;;;5048068;28;20378;-69
2022/01/18 01:33:18;;;;;;;51.45;6.35;;;6.60;99.90;;;;;;5048898;28;20052;-69
2022/01/18 01:43:31;;;;;;;52.33;7.18;;;6.40;99.90;;;;;;5049820;28;20053;-68
2022/01/18 01:45:58;;;;;;;53.05;6.78;;;6.40;99.90;;;;;;5033714;28;20048;-69
2022/01/18 01:48:25;;;;;;;41.58;6.25;;;6.40;99.90;;;;;;5038817;28;20099;-68
2022/01/18 01:51:01;;;;;;;41.10;6.60;;;6.40;99.90;;;;;;5048527;28;20041;-68
2022/01/18 01:53:28;;;;;;;50.90;6.93;;;6.40;99.90;;;;;;5034710;28;20083;-69
2022/01/18 01:55:54;;;;;;;43.85;5.25;;;6.40;99.90;;;;;;5049525;28;20068;-69
2022/01/18 01:58:21;;;;;;;45.17;5.70;;;6.40;99.90;;;;;;5049234;28;20385;-68
2022/01/18 02:00:54;;;;;;;47.42;6.60;;;6.50;99.90;;;;;;5032799;28;20118;-69
2022/01/18 02:03:22;;;;;;;34.85;4.93;;;6.40;99.90;;;;;;5068758;28;20043;-68
2022/01/18 02:05:48;;;;;;;44.13;5.50;;;6.50;99.90;;;;;;5070826;28;20041;-69
2022/01/18 02:08:15;;;;;;;40.03;5.53;;;6.50;99.90;;;;;;5053454;28;20048;-68
2022/01/18 02:10:42;;;;;;;29.63;5.25;;;6.30;99.90;;;;;;5050314;28;20076;-69
2022/01/18 02:13:09;;;;;;;46.50;6.13;;;6.60;99.90;;;;;;5052215;28;20408;-69
2022/01/18 02:15:42;;;;;;;33.47;5.90;;;6.60;99.90;;;;;;5051131;28;20045;-69
2022/01/18 02:23:40;;;;;;;34.25;5.50;;;6.70;99.90;;;;;;5049436;28;20127;-69
2022/01/18 02:26:06;;;;;;;34.75;5.30;;;6.80;99.90;;;;;;5050131;28;20473;-69
2022/01/18 02:28:32;;;;;;;37.20;5.25;;;6.80;99.90;;;;;;5045431;28;20052;-70
2022/01/18 02:30:57;;;;;;;39.17;5.60;;;6.80;99.90;;;;;;5031292;28;20047;-69
2022/01/18 02:33:23;;;;;;;37.55;5.07;;;6.80;99.90;;;;;;5030133;28;20540;-70
2022/01/18 02:35:50;;;;;;;38.60;5.82;;;6.70;99.90;;;;;;5032030;28;20484;-69
2022/01/18 02:38:16;;;;;;;41.67;6.10;;;7.20;99.90;;;;;;5045573;28;20048;-69
2022/01/18 02:40:43;;;;;;;36.58;6.68;;;6.70;99.90;;;;;;5043947;28;20541;-69
2022/01/18 02:45:56;;;;;;;31.20;5.15;;;6.80;99.90;;;;;;5028075;28;20509;-69
2022/01/18 02:48:22;;;;;;;33.13;4.60;;;6.80;99.90;;;;;;5028728;28;20544;-69
2022/01/18 02:50:48;;;;;;;33.00;5.47;;;6.80;99.90;;;;;;5030962;28;20068;-69
2022/01/18 02:53:16;;;;;;;36.63;5.90;;;6.80;99.90;;;;;;5028562;28;20489;-69
2022/01/18 02:55:42;;;;;;;31.92;4.30;;;6.90;99.90;;;;;;5048032;28;20066;-69
2022/01/18 02:58:10;;;;;;;27.05;4.60;;;6.80;99.90;;;;;;5034476;28;20053;-69
2022/01/18 03:03:24;;;;;;;28.77;4.38;;;6.90;99.90;;;;;;5052885;28;20128;-69
2022/01/18 03:05:50;;;;;;;23.10;4.03;;;7.00;99.90;;;;;;5050999;28;20456;-70
2022/01/18 03:08:17;;;;;;;26.52;4.63;;;7.00;99.90;;;;;;5029594;28;20077;-69
2022/01/18 03:10:43;;;;;;;23.35;3.90;;;7.00;99.90;;;;;;5044912;28;20431;-70
2022/01/18 03:13:09;;;;;;;24.52;4.03;;;7.00;99.90;;;;;;5062929;28;20044;-70
2022/01/18 03:15:36;;;;;;;28.98;4.20;;;7.00;99.90;;;;;;5069430;28;20051;-70
2022/01/18 03:18:06;;;;;;;27.48;4.72;;;7.00;99.90;;;;;;5051118;28;20175;-68
2022/01/18 03:20:32;;;;;;;30.33;5.28;;;7.20;99.90;;;;;;5061205;28;20048;-69
2022/01/18 03:22:58;;;;;;;20.45;3.60;;;7.00;99.90;;;;;;5056101;28;20154;-69
2022/01/18 03:28:06;;;;;;;21.60;3.45;;;6.90;99.90;;;;;;5047057;28;20143;-69
2022/01/18 03:30:36;;;;;;;19.10;3.30;;;7.00;99.90;;;;;;5050536;28;20064;-69
2022/01/18 03:33:03;;;;;;;17.90;3.80;;;7.00;99.90;;;;;;5047888;28;20045;-69
2022/01/18 03:35:29;;;;;;;23.67;3.97;;;7.00;99.90;;;;;;5049237;28;20053;-69
2022/01/18 03:37:55;;;;;;;26.02;3.78;;;7.00;99.90;;;;;;5047626;28;20048;-68
2022/01/18 03:40:21;;;;;;;17.48;3.40;;;7.00;99.90;;;;;;5050407;28;20053;-68
2022/01/18 03:42:48;;;;;;;18.77;3.08;;;7.00;99.90;;;;;;5048538;28;20447;-69
2022/01/18 03:45:20;;;;;;;26.73;3.55;;;7.00;99.90;;;;;;5049670;28;20045;-69
2022/01/18 03:47:47;;;;;;;18.58;3.17;;;7.00;99.90;;;;;;5047696;28;20053;-69
2022/01/18 03:50:15;;;;;;;21.58;3.45;;;7.00;99.90;;;;;;5049239;28;20044;-69
2022/01/18 03:52:42;;;;;;;20.10;3.72;;;7.00;99.90;;;;;;5058836;28;20048;-68
2022/01/18 03:55:10;;;;;;;23.67;3.65;;;7.10;99.90;;;;;;5071072;28;20152;-68
2022/01/18 03:57:36;;;;;;;18.58;3.13;;;7.00;99.90;;;;;;5065851;28;20352;-69
2022/01/18 04:00:04;;;;;;;19.75;3.78;;;7.00;99.90;;;;;;5054086;28;20041;-69
2022/01/18 04:02:30;;;;;;;20.13;3.00;;;7.00;99.90;;;;;;5065832;28;20068;-69
2022/01/18 04:04:56;;;;;;;21.50;3.25;;;7.00;99.90;;;;;;5083037;28;20051;-69
2022/01/18 04:07:21;;;;;;;21.70;3.80;;;7.00;99.90;;;;;;5059815;28;20037;-68
2022/01/18 04:09:47;;;;;;;20.77;3.40;;;7.10;99.90;;;;;;5068989;28;20093;-68
2022/01/18 04:12:12;;;;;;;23.17;3.90;;;6.10;99.90;;;;;;5082359;28;20434;-69
2022/01/18 04:14:38;;;;;;;20.13;3.30;;;7.00;99.90;;;;;;5068265;28;20121;-68
2022/01/18 04:27:34;;;;;;;14.20;2.65;;;7.10;99.90;;;;;;5067783;28;20128;-68
2022/01/18 04:29:59;;;;;;;20.05;3.35;;;7.10;99.90;;;;;;5065434;28;20373;-68
2022/01/18 04:32:25;;;;;;;13.23;2.80;;;7.00;99.90;;;;;;5065541;28;20086;-70
2022/01/18 04:34:50;;;;;;;11.13;3.10;;;7.00;99.90;;;;;;5066437;28;20490;-70
2022/01/18 04:37:16;;;;;;;19.85;3.63;;;7.60;99.90;;;;;;5068992;28;20094;-69
2022/01/18 04:39:43;;;;;;;19.13;3.13;;;7.00;99.90;;;;;;5067438;28;20091;-69
2022/01/18 04:42:16;;;;;;;15.52;2.63;;;7.10;99.90;;;;;;5064049;28;20048;-69
2022/01/18 04:50:11;;;;;;;17.63;2.60;;;7.10;99.90;;;;;;5068699;28;20369;-69
2022/01/18 04:52:36;;;;;;;17.38;3.45;;;7.10;99.90;;;;;;5067417;28;20052;-69
2022/01/18 04:55:03;;;;;;;14.85;2.83;;;7.10;99.90;;;;;;5066222;28;20135;-68
2022/01/18 05:00:14;;;;;;;14.88;2.63;;;7.10;99.90;;;;;;5059196;28;20041;-68
2022/01/18 05:02:42;;;;;;;12.52;2.38;;;7.10;99.90;;;;;;5049978;28;20605;-69
2022/01/18 05:05:10;;;;;;;12.00;2.25;;;7.10;99.90;;;;;;5032953;28;20037;-69
2022/01/18 05:07:36;;;;;;;13.40;2.72;;;7.10;99.90;;;;;;5047836;28;20044;-69
2022/01/18 05:10:02;;;;;;;14.07;2.40;;;7.10;99.90;;;;;;5048511;28;20045;-68
2022/01/18 05:12:45;;;;;;;17.20;2.88;;;7.20;99.90;;;;;;5047473;28;20072;-68
2022/01/18 05:15:35;;;;;;;17.33;3.42;;;7.20;99.90;;;;;;5046064;28;20504;-69
2022/01/18 05:23:15;;;;;;;10.83;2.93;;;7.20;99.90;;;;;;5029127;28;20049;-68
2022/01/18 05:25:41;;;;;;;16.25;3.10;;;7.20;99.90;;;;;;5030594;28;20096;-68
2022/01/18 05:28:07;;;;;;;13.43;2.58;;;7.10;99.90;;;;;;5031291;28;20049;-68
2022/01/18 05:30:33;;;;;;;12.57;2.80;;;7.10;99.90;;;;;;5045351;28;20129;-68
2022/01/18 05:32:59;;;;;;;12.00;2.75;;;7.10;99.90;;;;;;5025960;28;20136;-70
2022/01/18 05:35:25;;;;;;;14.50;2.72;;;7.10;99.90;;;;;;5031392;28;20045;-71
2022/01/18 05:37:51;;;;;;;13.20;2.25;;;7.20;99.90;;;;;;5027497;28;20049;-69
2022/01/18 05:40:18;;;;;;;13.57;2.50;;;7.20;99.90;;;;;;5028371;28;20042;-69
2022/01/18 05:42:47;;;;;;;14.48;2.70;;;7.10;99.90;;;;;;5026337;28;20052;-68
2022/01/18 05:45:13;;;;;;;12.00;2.30;;;7.20;99.90;;;;;;5027289;28;20143;-68
2022/01/18 05:47:40;;;;;;;17.05;3.03;;;7.40;99.90;;;;;;5025481;28;20049;-69
2022/01/18 05:50:07;;;;;;;14.60;2.47;;;7.20;99.90;;;;;;5027341;28;20061;-68
2022/01/18 05:52:34;;;;;;;15.40;3.15;;;7.20;99.90;;;;;;5027773;28;20050;-69
2022/01/18 05:55:00;;;;;;;17.15;2.72;;;7.20;99.90;;;;;;5040094;28;20049;-69
2022/01/18 05:57:25;;;;;;;11.52;2.53;;;7.10;99.90;;;;;;5025686;28;20045;-69
2022/01/18 05:59:53;;;;;;;17.42;2.90;;;7.10;99.90;;;;;;5026714;28;20125;-69
2022/01/18 06:02:33;;;;;;;12.30;2.65;;;7.10;99.90;;;;;;5047712;28;20084;-69
2022/01/18 06:07:43;;;;;;;16.10;2.80;;;7.20;99.90;;;;;;5041488;28;20048;-69
2022/01/18 06:10:09;;;;;;;15.10;2.97;;;7.20;99.90;;;;;;5059819;28;20535;-69
2022/01/18 06:12:34;;;;;;;18.10;3.22;;;7.10;99.90;;;;;;5061033;28;20040;-69
2022/01/18 06:15:01;;;;;;;15.77;3.13;;;7.10;99.90;;;;;;5048486;28;20045;-69
2022/01/18 06:17:26;;;;;;;10.52;3.17;;;7.10;99.90;;;;;;5048918;28;20131;-69
2022/01/18 06:19:52;;;;;;;11.50;3.05;;;7.40;99.90;;;;;;5047017;28;20135;-69
2022/01/18 06:22:18;;;;;;;14.88;3.08;;;7.20;99.90;;;;;;5049774;28;20036;-69
2022/01/18 06:24:44;;;;;;;12.00;2.92;;;7.30;99.90;;;;;;5049083;28;20052;-69
2022/01/18 06:27:10;;;;;;;13.15;2.78;;;7.20;99.90;;;;;;5050594;28;20101;-69
2022/01/18 06:29:36;;;;;;;14.07;3.38;;;7.20;99.90;;;;;;5048684;28;20041;-69
2022/01/18 06:32:04;;;;;;;16.85;3.53;;;7.20;99.90;;;;;;5050251;28;20087;-69
2022/01/18 06:34:30;;;;;;;18.83;3.22;;;7.20;99.90;;;;;;5049781;28;20181;-69
2022/01/18 06:36:56;;;;;;;20.50;3.70;;;7.90;99.90;;;;;;5050848;28;20045;-71
2022/01/18 06:39:22;;;;;;;12.75;2.90;;;7.20;99.90;;;;;;5050081;28;20052;-70
2022/01/18 06:41:48;;;;;;;14.30;2.80;;;7.10;99.90;;;;;;5033682;28;20503;-70
2022/01/18 06:44:14;;;;;;;15.48;2.92;;;7.20;99.90;;;;;;5030601;28;20127;-70
2022/01/18 06:46:40;;;;;;;15.35;2.88;;;7.10;99.90;;;;;;5029431;28;20482;-70
2022/01/18 06:49:06;;;;;;;13.70;3.45;;;7.00;99.90;;;;;;5030220;28;20040;-69
2022/01/18 06:51:32;;;;;;;15.32;3.40;;;7.00;99.90;;;;;;5030685;28;20048;-70
2022/01/18 06:53:58;;;;;;;15.80;2.92;;;7.00;99.90;;;;;;5029392;28;20090;-69
2022/01/18 06:56:26;;;;;;;14.63;2.95;;;7.00;99.90;;;;;;5029081;28;20461;-70
2022/01/18 06:58:53;;;;;;;11.77;3.00;;;7.00;99.90;;;;;;5029343;28;20098;-69
2022/01/18 07:01:19;;;;;;;13.07;3.03;;;6.90;99.90;;;;;;5029890;28;20049;-69
2022/01/18 07:03:47;;;;;;;17.85;3.70;;;6.90;99.90;;;;;;5029033;28;20151;-70
2022/01/18 07:06:12;;;;;;;20.73;3.45;;;6.90;99.90;;;;;;5029926;28;20050;-69
2022/01/18 07:08:38;;;;;;;13.30;3.65;;;7.20;99.90;;;;;;5031482;28;20051;-70
2022/01/18 07:11:05;;;;;;;16.58;3.90;;;6.90;99.90;;;;;;5036884;28;20089;-69
2022/01/18 07:13:31;;;;;;;15.35;3.60;;;7.20;99.90;;;;;;5047829;28;20397;-69
2022/01/18 07:15:57;;;;;;;14.32;3.47;;;8.10;99.90;;;;;;5053609;28;20037;-67
2022/01/18 07:18:23;;;;;;;14.63;3.80;;;7.00;99.90;;;;;;5046984;28;20497;-66
2022/01/18 07:20:48;;;;;;;12.45;3.50;;;7.00;99.90;;;;;;5040403;28;20041;-66
2022/01/18 07:23:14;;;;;;;17.45;3.95;;;7.00;99.90;;;;;;5070130;28;20571;-66
2022/01/18 07:25:43;;;;;;;17.60;4.20;;;7.00;99.90;;;;;;5067754;28;20056;-66
2022/01/18 07:28:10;;;;;;;17.42;3.95;;;6.80;99.90;;;;;;5057151;28;20080;-66
2022/01/18 07:30:37;;;;;;;23.75;4.35;;;6.90;99.90;;;;;;5064114;28;20040;-66
2022/01/18 07:33:04;;;;;;;12.57;3.70;;;6.90;99.90;;;;;;5065623;28;20119;-67
2022/01/18 07:35:33;;;;;;;19.70;4.20;;;7.00;99.90;;;;;;5044452;28;20131;-66
2022/01/18 07:38:00;;;;;;;19.05;4.38;;;6.90;99.90;;;;;;5028959;28;20198;-66
2022/01/18 07:40:27;;;;;;;16.75;3.80;;;7.00;99.90;;;;;;5029807;28;20125;-67
2022/01/18 07:42:53;;;;;;;13.15;4.25;;;6.90;99.90;;;;;;5027306;28;20056;-67
2022/01/18 07:45:19;;;;;;;17.38;5.22;;;6.90;99.90;;;;;;5029873;28;20120;-67
2022/01/18 07:47:44;;;;;;;18.35;3.85;;;6.90;99.90;;;;;;5038328;28;20566;-67
2022/01/18 07:50:10;;;;;;;19.05;4.63;;;6.90;99.90;;;;;;5066857;28;20052;-67
2022/01/18 07:52:36;;;;;;;20.17;4.72;;;6.90;99.90;;;;;;5069099;28;20227;-68
2022/01/18 07:55:05;;;;;;;12.68;3.70;;;6.90;99.90;;;;;;5069752;28;20059;-67
2022/01/18 07:57:31;;;;;;;16.00;3.83;;;6.80;99.90;;;;;;5069397;28;20051;-66
2022/01/18 07:59:57;;;;;;;13.27;4.35;;;6.80;99.90;;;;;;5067933;28;20520;-66
2022/01/18 08:02:23;;;;;;;17.75;4.60;;;6.70;99.90;;;;;;5048814;28;20077;-67
2022/01/18 08:04:49;;;;;;;19.83;4.22;;;6.70;99.90;;;;;;5068397;28;20033;-68
2022/01/18 08:07:15;;;;;;;15.00;4.55;;;6.70;99.90;;;;;;5033443;28;20507;-66
2022/01/18 08:09:41;;;;;;;20.67;4.50;;;6.60;99.90;;;;;;5028273;28;20056;-66
2022/01/18 08:12:07;;;;;;;20.48;4.93;;;6.60;99.90;;;;;;5010048;28;20046;-66
2022/01/18 08:14:34;;;;;;;17.08;4.88;;;6.60;99.90;;;;;;5048969;28;20048;-66
2022/01/18 08:17:04;;;;;;;15.93;4.53;;;6.70;99.90;;;;;;5050198;28;20052;-67
2022/01/18 08:19:35;;;;;;;18.08;4.25;;;6.70;99.90;;;;;;5064714;28;20041;-67
2022/01/18 08:22:01;;;;;;;16.52;3.83;;;6.70;99.90;;;;;;5048615;28;20041;-67
2022/01/18 08:24:27;;;;;;;16.15;3.83;;;6.70;99.90;;;;;;5048562;28;20041;-67
2022/01/18 08:26:53;;;;;;;13.35;3.53;;;6.80;99.90;;;;;;5047985;28;20064;-67
2022/01/18 08:29:19;;;;;;;15.15;3.80;;;6.80;99.90;;;;;;5047737;28;20068;-67
2022/01/18 08:31:45;;;;;;;17.25;4.18;;;6.90;99.90;;;;;;5048462;28;20142;-67
2022/01/18 08:34:11;;;;;;;18.15;4.43;;;6.90;99.90;;;;;;5058350;28;20032;-67
2022/01/18 08:36:37;;;;;;;17.05;4.68;;;6.90;99.90;;;;;;5068214;28;20056;-67
2022/01/18 08:39:05;;;;;;;16.10;4.45;;;6.90;99.90;;;;;;5065961;28;20464;-66
2022/01/18 08:41:31;;;;;;;14.90;4.30;;;6.90;99.90;;;;;;5040043;28;20467;-66
2022/01/18 08:43:57;;;;;;;14.07;4.15;;;6.90;99.90;;;;;;5027326;28;20436;-67
2022/01/18 08:46:23;;;;;;;12.90;4.30;;;7.00;99.90;;;;;;5026348;28;20060;-67
2022/01/18 08:48:49;;;;;;;17.88;4.30;;;7.00;99.90;;;;;;5026869;28;20504;-67
2022/01/18 08:51:14;;;;;;;14.32;3.90;;;7.00;99.90;;;;;;5043847;28;20486;-67
2022/01/18 08:53:41;;;;;;;14.80;4.72;;;7.30;99.90;;;;;;5047419;28;20101;-67
2022/01/18 08:56:07;;;;;;;20.08;4.82;;;7.00;99.90;;;;;;5051337;28;20059;-67
2022/01/18 08:58:34;;;;;;;15.20;3.80;;;7.00;99.90;;;;;;5049148;28;20048;-67
2022/01/18 09:01:03;;;;;;;16.58;4.80;;;7.00;99.90;;;;;;5063300;28;20437;-67
2022/01/18 09:03:30;;;;;;;17.38;5.05;;;7.10;99.90;;;;;;5042148;28;20037;-68
2022/01/18 09:05:57;;;;;;;14.38;4.10;;;7.10;99.90;;;;;;5047389;28;20044;-67
2022/01/18 09:08:23;;;;;;;15.73;4.93;;;7.20;99.90;;;;;;5047928;28;20041;-67
2022/01/18 09:10:49;;;;;;;15.00;4.30;;;7.30;99.90;;;;;;5045854;28;20060;-67
2022/01/18 09:13:16;;;;;;;14.82;3.80;;;7.40;99.90;;;;;;5047946;28;20045;-67
2022/01/18 09:15:42;;;;;;;17.17;4.15;;;7.40;99.90;;;;;;5058760;28;20091;-67
2022/01/18 09:18:08;;;;;;;17.25;4.32;;;7.50;99.90;;;;;;5065352;28;20057;-67
2022/01/18 09:20:34;;;;;;;12.75;3.35;;;7.60;99.90;;;;;;5067049;28;20055;-67
2022/01/18 09:23:00;;;;;;;20.05;4.15;;;7.70;99.90;;;;;;5047706;28;20513;-67
2022/01/18 09:25:28;;;;;;;10.02;3.58;;;7.70;99.90;;;;;;5052223;28;20048;-67
2022/01/18 09:27:54;;;;;;;11.02;3.30;;;8.80;99.90;;;;;;5053714;28;20468;-67
2022/01/18 09:30:23;;;;;;;12.55;3.53;;;8.10;99.90;;;;;;5037375;28;20505;-67
2022/01/18 09:32:49;;;;;;;14.73;3.05;;;7.80;99.90;;;;;;5024564;28;20049;-67
2022/01/18 09:35:16;;;;;;;13.35;3.13;;;7.80;99.90;;;;;;5047655;28;20059;-67
2022/01/18 09:37:42;;;;;;;17.73;3.47;;;8.70;99.90;;;;;;5051717;28;20503;-67
2022/01/18 09:40:09;;;;;;;15.48;3.88;;;7.80;99.90;;;;;;5064558;28;20469;-67
2022/01/18 09:42:38;;;;;;;13.85;3.50;;;7.90;99.90;;;;;;5046886;28;20432;-67
2022/01/18 09:45:07;;;;;;;15.02;3.92;;;7.90;99.90;;;;;;5050062;28;20044;-67
2022/01/18 09:47:34;;;;;;;12.25;3.58;;;7.30;99.90;;;;;;5064776;28;20057;-67
2022/01/18 09:50:00;;;;;;;12.40;3.80;;;7.90;99.90;;;;;;5063404;28;20544;-67
2022/01/18 09:52:26;;;;;;;18.80;3.67;;;8.90;99.90;;;;;;5026816;28;20068;-67
2022/01/18 09:54:52;;;;;;;14.32;3.97;;;8.00;99.90;;;;;;5025710;28;20474;-67
2022/01/18 09:57:18;;;;;;;15.88;4.40;;;8.00;99.90;;;;;;5029232;28;20054;-67
2022/01/18 09:59:43;;;;;;;15.27;4.68;;;8.00;99.90;;;;;;5030363;28;20092;-68
2022/01/18 10:02:10;;;;;;;13.73;4.60;;;8.10;99.90;;;;;;5031739;28;20081;-67
2022/01/18 10:04:44;;;;;;;14.60;4.40;;;8.10;99.90;;;;;;5054013;28;20481;-67
2022/01/18 10:07:10;;;;;;;15.82;5.55;;;9.20;99.90;;;;;;5032889;28;20095;-66
2022/01/18 10:09:39;;;;;;;17.67;5.00;;;9.40;99.90;;;;;;5048475;28;20440;-67
2022/01/18 10:12:11;;;;;;;19.33;5.10;;;8.40;99.90;;;;;;5050314;28;20033;-67
2022/01/18 10:14:52;;;;;;;18.63;5.03;;;8.60;99.90;;;;;;5048273;28;20045;-67
2022/01/18 10:17:37;;;;;;;14.45;4.72;;;8.60;99.90;;;;;;5049495;28;20047;-67
2022/01/18 10:20:09;;;;;;;16.75;4.75;;;8.80;99.90;;;;;;5052041;28;20055;-67
2022/01/18 10:22:41;;;;;;;14.88;5.13;;;8.90;99.90;;;;;;5050551;28;20110;-66
2022/01/18 10:25:21;;;;;;;11.30;4.28;;;9.60;99.90;;;;;;5044782;28;20041;-66
2022/01/18 10:27:49;;;;;;;15.02;4.32;;;8.90;99.90;;;;;;5029455;28;20049;-66
2022/01/18 10:30:24;;;;;;;16.58;3.72;;;8.80;99.90;;;;;;5028411;28;20041;-66
2022/01/18 10:33:21;;;;;;;12.98;3.83;;;8.90;99.90;;;;;;5030311;28;20052;-66
2022/01/18 10:36:12;;;;;;;17.08;4.35;;;9.00;99.90;;;;;;5027749;28;20073;-69
2022/01/18 10:38:39;;;;;;;14.98;4.72;;;9.00;99.90;;;;;;5029899;28;20041;-66
2022/01/18 10:41:33;;;;;;;18.20;3.72;;;9.00;99.90;;;;;;5030349;28;20041;-66
2022/01/18 10:44:13;;;;;;;13.10;3.60;;;9.20;99.90;;;;;;5042883;28;20041;-67
2022/01/18 10:46:56;;;;;;;14.52;3.90;;;8.90;99.90;;;;;;5065078;28;20044;-67
2022/01/18 10:49:40;;;;;;;13.77;3.67;;;8.80;99.90;;;;;;5048335;28;20127;-67
2022/01/18 10:52:11;;;;;;;12.88;3.80;;;8.90;99.90;;;;;;5053134;28;20441;-67
2022/01/18 10:54:47;;;;;;;12.13;3.53;;;8.90;99.90;;;;;;5048348;28;20634;-68
2022/01/18 10:57:25;;;;;;;12.45;3.90;;;9.00;99.90;;;;;;5048065;28;20421;-70
2022/01/18 11:00:01;;;;;;;19.38;3.95;;;8.80;99.90;;;;;;5046318;28;20124;-70
2022/01/18 11:02:31;;;;;;;13.20;4.05;;;8.60;99.90;;;;;;5046603;28;20131;-70
2022/01/18 11:04:57;;;;;;;10.75;3.53;;;8.60;99.90;;;;;;5062004;28;20159;-71
2022/01/18 11:07:26;;;;;;;12.43;4.18;;;8.60;99.90;;;;;;5048540;28;20135;-70
2022/01/18 11:09:52;;;;;;;9.50;3.90;;;8.50;99.90;;;;;;5045895;28;20055;-70
2022/01/18 11:12:20;;;;;;;14.98;4.00;;;8.40;99.90;;;;;;5045805;28;20075;-72
2022/01/18 11:14:51;;;;;;;14.57;3.90;;;8.50;99.90;;;;;;5044516;28;20079;-70
2022/01/18 11:17:23;;;;;;;8.57;3.67;;;8.50;99.90;;;;;;5061492;28;20056;-70
2022/01/18 11:19:51;;;;;;;13.32;3.15;;;8.70;99.90;;;;;;5062642;28;20045;-70
2022/01/18 11:22:17;;;;;;;10.75;3.28;;;8.80;99.90;;;;;;5058097;28;20049;-70
2022/01/18 11:24:47;;;;;;;8.10;3.55;;;8.90;99.90;;;;;;5044279;28;20045;-70
2022/01/18 11:27:14;;;;;;;13.07;3.88;;;8.70;99.90;;;;;;5046450;28;20096;-71
2022/01/18 11:29:43;;;;;;;11.68;3.50;;;8.70;99.90;;;;;;5044078;28;20102;-71
2022/01/18 11:32:10;;;;;;;12.52;3.40;;;8.60;99.90;;;;;;5045302;28;20491;-70
2022/01/18 11:35:13;;;;;;;9.43;3.50;;;8.50;99.90;;;;;;5060547;28;20122;-70
2022/01/18 11:37:54;;;;;;;9.45;3.42;;;8.40;99.90;;;;;;5042991;28;20044;-70
2022/01/18 11:40:20;;;;;;;12.80;3.80;;;8.30;99.90;;;;;;5049621;28;20056;-70
2022/01/18 11:42:53;;;;;;;11.20;3.55;;;8.20;99.90;;;;;;5063616;28;20158;-71
2022/01/18 11:45:24;;;;;;;14.32;3.72;;;8.10;99.90;;;;;;5051332;28;20131;-70
2022/01/18 11:48:11;;;;;;;15.18;4.18;;;8.10;99.90;;;;;;5062728;28;20045;-66
2022/01/18 11:51:08;;;;;;;10.73;3.20;;;8.20;99.90;;;;;;5067669;28;20411;-66
2022/01/18 11:53:41;;;;;;;10.15;2.97;;;8.20;99.90;;;;;;5039073;28;20053;-66
2022/01/18 11:56:12;;;;;;;12.73;3.03;;;8.20;99.90;;;;;;5057150;28;20066;-65
2022/01/18 11:58:39;;;;;;;9.20;2.92;;;8.20;99.90;;;;;;5069512;28;20041;-65
2022/01/18 12:01:05;;;;;;;10.20;3.25;;;8.20;99.90;;;;;;5051441;28;20124;-66
2022/01/18 12:03:45;;;;;;;13.63;3.38;;;8.10;99.90;;;;;;5047163;28;20046;-65
2022/01/18 12:06:10;;;;;;;14.02;3.75;;;8.20;99.90;;;;;;5036996;28;20044;-65
2022/01/18 12:08:37;;;;;;;12.25;3.40;;;8.40;99.90;;;;;;5047828;28;20045;-68
2022/01/18 12:11:10;;;;;;;13.88;3.42;;;8.50;99.90;;;;;;5047149;28;20061;-66
2022/01/18 12:13:43;;;;;;;12.10;4.07;;;8.20;99.90;;;;;;5057295;28;20044;-66
2022/01/18 12:16:20;;;;;;;15.02;3.78;;;8.20;99.90;;;;;;5067153;28;20378;-67
2022/01/18 12:18:55;;;;;;;9.13;2.92;;;8.20;99.90;;;;;;5067261;28;20524;-67
2022/01/18 12:21:26;;;;;;;15.15;4.22;;;8.10;99.90;;;;;;5068618;28;20028;-66
2022/01/18 12:23:52;;;;;;;10.70;3.67;;;8.10;99.90;;;;;;5071184;28;20041;-66
2022/01/18 12:26:46;;;;;;;13.07;3.60;;;8.80;99.90;;;;;;5069883;28;20051;-66
2022/01/18 12:29:46;;;;;;;13.93;3.78;;;8.20;99.90;;;;;;5066031;28;20182;-66
2022/01/18 12:34:45;;;;;;;10.48;3.75;;;8.10;99.90;;;;;;5067184;28;20048;-68
2022/01/18 12:37:24;;;;;;;14.57;4.18;;;8.00;99.90;;;;;;5067158;28;20049;-66
2022/01/18 12:39:50;;;;;;;11.43;4.13;;;8.20;99.90;;;;;;5068005;28;20060;-66
2022/01/18 12:44:20;;;;;;;12.23;4.45;;;8.00;99.90;;;;;;5067279;28;20044;-66
2022/01/18 12:45:13;;;;;;;14.48;4.65;;;8.10;99.90;;;;;;5067178;28;20055;-66
2022/01/18 12:47:43;;;;;;;16.33;5.22;;;8.10;99.90;;;;;;5066073;28;20040;-66
2022/01/18 12:50:10;;;;;;;17.92;5.40;;;8.00;99.90;;;;;;5066886;28;20455;-68
2022/01/18 12:53:16;;;;;;;16.80;5.40;;;8.00;99.90;;;;;;5061784;28;20045;-68
2022/01/18 12:56:02;;;;;;;13.23;5.20;;;8.10;99.90;;;;;;5025898;28;20057;-66
2022/01/18 12:58:38;;;;;;;16.38;5.20;;;8.10;99.90;;;;;;5028645;28;20091;-67
2022/01/18 13:01:14;;;;;;;14.80;5.07;;;8.00;99.90;;;;;;5029502;28;20048;-66
2022/01/18 13:03:59;;;;;;;13.85;4.70;;;8.00;99.90;;;;;;5027124;28;20108;-67
2022/01/18 13:06:29;;;;;;;14.55;4.90;;;8.00;99.90;;;;;;5028524;28;20045;-66
2022/01/18 13:09:00;;;;;;;18.55;4.78;;;8.00;99.90;;;;;;5052319;28;20418;-66
2022/01/18 13:11:34;;;;;;;13.25;4.72;;;8.00;99.90;;;;;;5069261;28;20045;-66
2022/01/18 13:14:13;;;;;;;14.15;5.05;;;8.00;99.90;;;;;;5068172;28;20053;-66
2022/01/18 13:25:11;;;;;;;15.43;5.22;;;8.20;99.90;;;;;;5068577;28;20395;-65
2022/01/18 13:27:44;;;;;;;14.90;5.35;;;8.40;99.90;;;;;;5067119;28;20044;-68
2022/01/18 13:30:22;;;;;;;19.00;6.15;;;8.40;99.90;;;;;;5052923;28;20053;-67
2022/01/18 13:32:49;;;;;;;15.73;5.32;;;8.50;99.90;;;;;;5030535;28;20079;-66
2022/01/18 13:35:18;;;;;;;19.52;6.15;;;8.50;99.90;;;;;;5033693;28;20046;-66
2022/01/18 13:37:43;;;;;;;17.17;6.22;;;8.50;99.90;;;;;;5029677;28;20520;-66
2022/01/18 13:40:15;;;;;;;18.92;5.22;;;8.50;99.90;;;;;;5031305;28;20659;-67
2022/01/18 13:42:56;;;;;;;16.40;5.32;;;8.50;99.90;;;;;;5030640;28;20465;-67
2022/01/18 13:45:24;;;;;;;17.55;6.50;;;8.50;99.90;;;;;;5031015;28;20421;-66
2022/01/18 13:47:52;;;;;;;18.45;6.15;;;8.50;99.90;;;;;;5046983;28;20131;-66
2022/01/18 13:50:33;;;;;;;18.40;6.75;;;8.50;99.90;;;;;;5049677;28;20104;-66
2022/01/18 13:53:08;;;;;;;16.48;5.85;;;8.60;99.90;;;;;;5030876;28;20049;-67
2022/01/18 13:55:37;;;;;;;20.27;6.18;;;8.60;99.90;;;;;;5029399;28;20057;-68
2022/01/18 13:58:03;;;;;;;17.23;6.15;;;8.60;99.90;;;;;;5030885;28;20402;-67
2022/01/18 14:00:31;;;;;;;19.63;6.57;;;8.70;99.90;;;;;;5029908;28;20044;-66
2022/01/18 14:02:56;;;;;;;23.00;6.13;;;8.90;99.90;;;;;;5029927;28;20398;-66
2022/01/18 14:05:24;;;;;;;15.93;6.15;;;8.70;99.90;;;;;;5032882;28;20041;-66
2022/01/18 14:08:11;;;;;;;19.13;6.25;;;8.70;99.90;;;;;;5032179;28;20397;-66
2022/01/18 14:10:37;;;;;;;17.55;5.95;;;10.00;99.90;;;;;;5031266;28;20049;-67
2022/01/18 14:13:03;;;;;;;15.88;6.38;;;8.60;99.90;;;;;;5029368;28;20053;-67
2022/01/18 14:15:43;;;;;;;20.02;6.78;;;8.60;99.90;;;;;;5043080;28;20087;-67
2022/01/18 14:18:09;;;;;;;18.58;6.40;;;8.50;99.90;;;;;;5048353;28;20052;-67
2022/01/18 14:20:35;;;;;;;15.10;5.97;;;8.40;99.90;;;;;;5050617;28;20160;-67